Ryuoh Maru No.2 — JM5900 — position and weather

sailwx.info

Track history (hours):
 
Tides and Currents Weather Stations Pressure Air Temp Water Temp Dewpoint Dewpoint Depression Visibility Wind Speed Wind Dir Waves Ship Positions

Ryuoh Maru No.2

Last reported at 2014-Oct-30 22:23 UTC. Time now 2014-Oct-31 04:09 UTC.
Position N 35°37' E 139°50'.

Length 80 m; draft 5.4 m.

Type: Cargo ship. MMSI: 431401218.

Date/timePositionNaut miles runAvg speedWind from/ knotsBaromVisibWave heightAir tempDewpointWater temp
2014-Oct-30 22:23N 35°37' E 139°50'4 4.4
2014-Oct-30 21:33N 35°35' E 139°53'0 0.0
2014-Oct-30 20:31N 35°35' E 139°53'0 0.0
2014-Oct-30 19:31N 35°35' E 139°53'0 0.0
2014-Oct-30 18:31N 35°35' E 139°53'0 0.0
2014-Oct-30 17:31N 35°35' E 139°53'0 0.0
2014-Oct-30 16:28N 35°35' E 139°53'0 0.0
2014-Oct-30 15:31N 35°35' E 139°53'0 0.0
2014-Oct-30 14:31N 35°35' E 139°53'0 0.0
2014-Oct-30 13:22N 35°35' E 139°53'0 0.0
2014-Oct-30 12:31N 35°35' E 139°53'0 0.0
2014-Oct-30 11:31N 35°35' E 139°53'0 0.0
2014-Oct-30 10:25N 35°35' E 139°53'0 0.0
2014-Oct-30 09:31N 35°35' E 139°53'0 0.0
2014-Oct-30 08:16N 35°35' E 139°53'0 0.0
2014-Oct-30 07:10N 35°35' E 139°53'0 0.0
2014-Oct-30 06:28N 35°35' E 139°53'0 0.0
2014-Oct-30 05:19N 35°35' E 139°53'3 4.5
2014-Oct-30 04:33N 35°31' E 139°52'9 9.0
2014-Oct-30 03:33N 35°23' E 139°49'1 1.1
2014-Oct-30 02:25N 35°22' E 139°51'0 0.0
2014-Oct-30 01:31N 35°22' E 139°51'0 0.0
2014-Oct-30 00:28N 35°22' E 139°51'0 0.0
2014-Oct-29 23:28N 35°22' E 139°51'0 0.0
2014-Oct-29 22:28N 35°22' E 139°51'1 1.5
2014-Oct-29 21:34N 35°22' E 139°49'0 0.1
2014-Oct-29 20:28N 35°22' E 139°49'0 0.0
2014-Oct-29 19:28N 35°22' E 139°49'0 0.0
2014-Oct-29 18:31N 35°22' E 139°49'0 0.0
2014-Oct-29 17:31N 35°22' E 139°49'0 0.0
2014-Oct-29 16:28N 35°22' E 139°49'0 0.0
2014-Oct-29 15:31N 35°22' E 139°49'0 0.0
2014-Oct-29 14:31N 35°22' E 139°49'0 0.1
2014-Oct-29 13:28N 35°22' E 139°49'0 0.0
2014-Oct-29 12:31N 35°22' E 139°49'0 0.0
2014-Oct-29 11:31N 35°22' E 139°49'0 0.0
2014-Oct-29 10:31N 35°22' E 139°49'0 0.0
2014-Oct-29 09:31N 35°22' E 139°49'0 0.0
2014-Oct-29 08:31N 35°22' E 139°49'0 0.0
2014-Oct-29 07:28N 35°22' E 139°49'0 0.1
2014-Oct-29 06:31N 35°22' E 139°49'0 0.0
2014-Oct-29 05:34N 35°22' E 139°49'6 6.2
2014-Oct-29 04:34N 35°17' E 139°46'  
2014-Oct-26 07:33N 35°16' E 139°46'9 9.3
2014-Oct-26 06:33N 35°25' E 139°44'6 6.3
2014-Oct-26 05:33N 35°22' E 139°51'0 0.0
2014-Oct-26 04:33N 35°22' E 139°51'0 0.0
2014-Oct-26 03:33N 35°22' E 139°51'0 0.0
2014-Oct-26 02:33N 35°22' E 139°51'1 1.1
2014-Oct-26 01:33N 35°22' E 139°49'6 6.0
2014-Oct-26 00:34N 35°17' E 139°45'  
Track history (hours):
 
Tides and Currents Weather Stations Pressure Air Temp Water Temp Dewpoint Dewpoint Depression Visibility Wind Speed Wind Dir Waves Ship Positions

Ryuoh Maru No.2

Last reported at 2014-Oct-30 22:23 UTC. Time now 2014-Oct-31 04:09 UTC.
Position N 35°37' E 139°50'.

Length 80 m; draft 5.4 m.

Type: Cargo ship. MMSI: 431401218.

Date/timePositionNaut miles runAvg speedWind from/ knotsBaromVisibWave heightAir tempDewpointWater temp
2014-Oct-30 22:23N 35°37' E 139°50'4 4.4
2014-Oct-30 21:33N 35°35' E 139°53'0 0.0
2014-Oct-30 20:31N 35°35' E 139°53'0 0.0
2014-Oct-30 19:31N 35°35' E 139°53'0 0.0
2014-Oct-30 18:31N 35°35' E 139°53'0 0.0
2014-Oct-30 17:31N 35°35' E 139°53'0 0.0
2014-Oct-30 16:28N 35°35' E 139°53'0 0.0
2014-Oct-30 15:31N 35°35' E 139°53'0 0.0
2014-Oct-30 14:31N 35°35' E 139°53'0 0.0
2014-Oct-30 13:22N 35°35' E 139°53'0 0.0
2014-Oct-30 12:31N 35°35' E 139°53'0 0.0
2014-Oct-30 11:31N 35°35' E 139°53'0 0.0
2014-Oct-30 10:25N 35°35' E 139°53'0 0.0
2014-Oct-30 09:31N 35°35' E 139°53'0 0.0
2014-Oct-30 08:16N 35°35' E 139°53'0 0.0
2014-Oct-30 07:10N 35°35' E 139°53'0 0.0
2014-Oct-30 06:28N 35°35' E 139°53'0 0.0
2014-Oct-30 05:19N 35°35' E 139°53'3 4.5
2014-Oct-30 04:33N 35°31' E 139°52'9 9.0
2014-Oct-30 03:33N 35°23' E 139°49'1 1.1
2014-Oct-30 02:25N 35°22' E 139°51'0 0.0
2014-Oct-30 01:31N 35°22' E 139°51'0 0.0
2014-Oct-30 00:28N 35°22' E 139°51'0 0.0
2014-Oct-29 23:28N 35°22' E 139°51'0 0.0
2014-Oct-29 22:28N 35°22' E 139°51'1 1.5
2014-Oct-29 21:34N 35°22' E 139°49'0 0.1
2014-Oct-29 20:28N 35°22' E 139°49'0 0.0
2014-Oct-29 19:28N 35°22' E 139°49'0 0.0
2014-Oct-29 18:31N 35°22' E 139°49'0 0.0
2014-Oct-29 17:31N 35°22' E 139°49'0 0.0
2014-Oct-29 16:28N 35°22' E 139°49'0 0.0
2014-Oct-29 15:31N 35°22' E 139°49'0 0.0
2014-Oct-29 14:31N 35°22' E 139°49'0 0.1
2014-Oct-29 13:28N 35°22' E 139°49'0 0.0
2014-Oct-29 12:31N 35°22' E 139°49'0 0.0
2014-Oct-29 11:31N 35°22' E 139°49'0 0.0
2014-Oct-29 10:31N 35°22' E 139°49'0 0.0
2014-Oct-29 09:31N 35°22' E 139°49'0 0.0
2014-Oct-29 08:31N 35°22' E 139°49'0 0.0
2014-Oct-29 07:28N 35°22' E 139°49'0 0.1
2014-Oct-29 06:31N 35°22' E 139°49'0 0.0
2014-Oct-29 05:34N 35°22' E 139°49'6 6.2
2014-Oct-29 04:34N 35°17' E 139°46'  
2014-Oct-26 07:33N 35°16' E 139°46'9 9.3
2014-Oct-26 06:33N 35°25' E 139°44'6 6.3
2014-Oct-26 05:33N 35°22' E 139°51'0 0.0
2014-Oct-26 04:33N 35°22' E 139°51'0 0.0
2014-Oct-26 03:33N 35°22' E 139°51'0 0.0
2014-Oct-26 02:33N 35°22' E 139°51'1 1.1
2014-Oct-26 01:33N 35°22' E 139°49'6 6.0
2014-Oct-26 00:34N 35°17' E 139°45'  

Dump ship's entire track history